createdAt,value
2022-08-23T00:05:08.332Z,17.82
2022-08-23T00:10:10.306Z,17.87
2022-08-23T00:15:16.342Z,17.88
2022-08-23T00:20:20.647Z,17.87
2022-08-23T00:25:23.859Z,17.84
2022-08-23T00:30:27.165Z,17.84
2022-08-23T00:35:30.580Z,17.81
2022-08-23T00:40:34.094Z,17.79
2022-08-23T00:46:05.977Z,17.77
2022-08-23T00:51:25.057Z,17.75
2022-08-23T00:56:32.154Z,17.78
2022-08-23T01:01:36.749Z,17.76
2022-08-23T01:06:58.700Z,17.72
2022-08-23T01:12:31.116Z,17.70
2022-08-23T01:17:40.184Z,17.69
2022-08-23T01:22:58.443Z,17.68
2022-08-23T01:28:02.243Z,17.70
2022-08-23T01:33:06.805Z,17.68
2022-08-23T01:38:12.126Z,17.65
2022-08-23T01:43:16.397Z,17.58
2022-08-23T01:48:21.142Z,17.54
2022-08-23T01:53:24.658Z,17.52
2022-08-23T01:58:31.757Z,17.48
2022-08-23T02:03:35.580Z,17.45
2022-08-23T02:08:57.733Z,17.42
2022-08-23T02:14:05.959Z,17.46
2022-08-23T02:19:13.085Z,17.51
2022-08-23T02:24:23.111Z,17.58
2022-08-23T02:29:30.001Z,17.66
2022-08-23T02:34:33.949Z,17.76
2022-08-23T02:39:38.852Z,17.83
2022-08-23T02:44:42.516Z,17.96
2022-08-23T02:49:46.544Z,18.04
2022-08-23T02:54:50.163Z,18.04
2022-08-23T02:59:58.393Z,18.08
2022-08-23T03:05:01.800Z,18.13
2022-08-23T03:10:07.374Z,18.10
2022-08-23T03:15:11.966Z,18.06
2022-08-23T03:20:16.033Z,18.06
2022-08-23T03:25:19.653Z,18.17
2022-08-23T03:30:23.065Z,18.22
2022-08-23T03:35:26.991Z,18.24
2022-08-23T03:40:30.203Z,18.20
2022-08-23T03:45:33.612Z,18.15
2022-08-23T03:50:37.334Z,18.17
2022-08-23T03:55:42.909Z,18.20
2022-08-23T04:00:46.417Z,18.20
2022-08-23T04:05:49.725Z,18.20
2022-08-23T04:10:53.033Z,18.24
2022-08-23T04:15:59.628Z,18.29
2022-08-23T04:21:07.841Z,18.34
2022-08-23T04:26:11.976Z,18.35
2022-08-23T04:31:16.618Z,18.39
2022-08-23T04:36:23.445Z,18.42
2022-08-23T04:41:45.975Z,18.52
2022-08-23T04:46:49.489Z,18.60
2022-08-23T04:51:53.934Z,18.64
2022-08-23T04:56:57.646Z,18.68
2022-08-23T05:02:00.961Z,18.71
2022-08-23T05:07:04.475Z,18.72
2022-08-23T05:12:08.402Z,18.81
2022-08-23T05:17:11.710Z,19.02
2022-08-23T05:22:16.967Z,19.19
2022-08-23T05:27:20.481Z,19.26
2022-08-23T05:32:23.998Z,19.31
2022-08-23T05:37:27.866Z,19.35
2022-08-23T05:42:31.234Z,19.34
2022-08-23T05:47:34.749Z,19.41
2022-08-23T05:52:38.987Z,19.44
2022-08-23T05:57:42.397Z,19.73
2022-08-23T06:02:45.706Z,20.00
2022-08-23T06:07:49.937Z,19.98
2022-08-23T06:12:53.249Z,20.15
2022-08-23T06:17:56.920Z,20.50
2022-08-23T06:23:00.080Z,20.69
2022-08-23T06:28:03.747Z,20.71
2022-08-23T06:33:07.107Z,20.78
2022-08-23T06:38:10.929Z,21.12
2022-08-23T06:43:14.343Z,21.47
2022-08-23T06:48:18.950Z,21.79
2022-08-23T06:53:22.397Z,22.13
2022-08-23T06:58:26.118Z,22.37
2022-08-23T07:03:29.434Z,22.66
2022-08-23T07:08:40.011Z,23.03
2022-08-23T07:13:44.074Z,23.50
2022-08-23T07:18:50.013Z,23.40
2022-08-23T07:23:54.755Z,23.52
2022-08-23T07:28:58.885Z,23.77
2022-08-23T07:34:05.280Z,23.47
2022-08-23T07:39:10.218Z,23.12
2022-08-23T07:44:16.800Z,22.99
2022-08-23T07:49:22.063Z,22.86
2022-08-23T07:54:25.943Z,22.97
2022-08-23T07:59:34.437Z,23.22
2022-08-23T08:04:39.113Z,23.47
2022-08-23T08:09:42.473Z,23.80
2022-08-23T08:14:48.607Z,24.15
2022-08-23T08:19:52.681Z,24.20
2022-08-23T08:24:55.891Z,24.33
2022-08-23T08:29:59.302Z,24.54
2022-08-23T08:35:03.330Z,24.76
2022-08-23T08:40:08.468Z,25.21
2022-08-23T08:45:27.923Z,25.22
2022-08-23T08:50:41.267Z,25.17
2022-08-23T08:55:52.884Z,25.39
2022-08-23T09:00:57.463Z,25.44
2022-08-23T09:06:13.361Z,25.47
2022-08-23T09:11:32.965Z,25.62
2022-08-23T09:16:58.288Z,25.82
2022-08-23T09:22:08.361Z,25.97
2022-08-23T09:27:12.191Z,26.17
2022-08-23T09:32:34.791Z,26.21
2022-08-23T09:38:20.710Z,26.09
2022-08-23T09:43:27.886Z,25.95
2022-08-23T09:48:35.981Z,26.14
2022-08-23T09:53:41.380Z,26.29
2022-08-23T09:58:47.935Z,26.39
2022-08-23T10:04:24.876Z,26.61
2022-08-23T10:09:33.213Z,26.70
2022-08-23T10:14:44.044Z,26.83
2022-08-23T10:20:07.423Z,27.13
2022-08-23T10:25:27.428Z,27.43
2022-08-23T10:30:58.612Z,27.91
2022-08-23T10:36:20.125Z,28.23
2022-08-23T10:41:49.961Z,28.36
2022-08-23T10:47:27.934Z,28.38
2022-08-23T10:52:40.745Z,28.51
2022-08-23T10:57:49.303Z,28.93
2022-08-23T11:03:03.493Z,29.31
2022-08-23T11:08:30.790Z,29.38
2022-08-23T11:13:35.352Z,29.17
2022-08-23T11:18:45.912Z,29.06
2022-08-23T11:23:50.965Z,29.25
2022-08-23T11:29:07.894Z,29.50
2022-08-23T11:34:23.027Z,29.48
2022-08-23T11:39:58.527Z,29.40
2022-08-23T11:45:03.192Z,29.32
2022-08-23T11:50:31.486Z,29.50
2022-08-23T11:56:06.131Z,29.57
2022-08-23T12:01:12.334Z,29.61
2022-08-23T12:06:39.146Z,29.93
2022-08-23T12:11:58.151Z,30.32
2022-08-23T12:17:13.803Z,30.42
2022-08-23T12:22:22.594Z,30.54
2022-08-23T12:27:34.710Z,30.81
2022-08-23T12:32:56.656Z,31.16
2022-08-23T12:38:20.154Z,31.45
2022-08-23T12:43:26.948Z,31.35
2022-08-23T12:48:45.297Z,31.27
2022-08-23T12:53:48.723Z,30.88
2022-08-23T12:58:58.328Z,30.40
2022-08-23T13:04:11.408Z,30.10
2022-08-23T13:09:20.558Z,29.68
2022-08-23T13:14:42.897Z,29.27
2022-08-23T13:19:49.253Z,28.89
2022-08-23T13:25:27.527Z,28.46
2022-08-23T13:30:33.094Z,28.11
2022-08-23T13:35:37.975Z,27.88
2022-08-23T13:41:01.420Z,27.67
2022-08-23T13:46:12.996Z,27.52
2022-08-23T13:51:27.889Z,27.40
2022-08-23T13:56:36.254Z,27.17
2022-08-23T14:01:40.001Z,26.87
2022-08-23T14:06:43.472Z,26.70
2022-08-23T14:11:57.958Z,26.38
2022-08-23T14:17:02.985Z,25.62
2022-08-23T14:22:06.717Z,25.03
2022-08-23T14:27:11.565Z,24.64
2022-08-23T14:32:14.777Z,24.30
2022-08-23T14:38:00.700Z,23.96
2022-08-23T14:42:41.369Z,23.72
2022-08-23T14:47:44.572Z,23.62
2022-08-23T14:52:48.604Z,23.55
2022-08-23T14:57:52.115Z,23.48
2022-08-23T15:02:55.882Z,23.38
2022-08-23T15:07:59.352Z,23.32
2022-08-23T15:13:20.717Z,23.30
2022-08-23T15:18:28.296Z,23.29
2022-08-23T15:23:32.545Z,23.17
2022-08-23T15:28:36.407Z,23.03
2022-08-23T15:33:40.482Z,22.77
2022-08-23T15:38:48.045Z,22.46
2022-08-23T15:43:52.226Z,22.37
2022-08-23T15:49:04.107Z,22.40
2022-08-23T15:54:10.239Z,22.38
2022-08-23T16:05:55.862Z,22.26
2022-08-23T16:11:00.702Z,22.14
2022-08-23T16:16:04.483Z,22.02
2022-08-23T16:21:08.350Z,21.80
2022-08-23T16:26:21.592Z,21.61
2022-08-23T16:31:38.817Z,21.09
2022-08-23T16:36:46.281Z,20.73
2022-08-23T16:41:50.158Z,20.51
2022-08-23T16:46:54.190Z,20.40
2022-08-23T16:51:57.505Z,20.30
2022-08-23T16:57:00.987Z,20.29
2022-08-23T17:02:10.627Z,20.35
2022-08-23T17:07:15.115Z,20.36
2022-08-23T17:12:19.640Z,20.45
2022-08-23T17:17:23.331Z,20.47
2022-08-23T17:22:26.477Z,20.45
2022-08-23T17:27:30.407Z,20.47
2022-08-23T17:32:34.230Z,20.53
2022-08-23T17:37:38.155Z,20.63
2022-08-23T17:42:43.001Z,20.72
2022-08-23T17:47:47.954Z,20.81
2022-08-23T17:52:51.362Z,20.76
2022-08-23T17:57:58.181Z,20.76
2022-08-23T18:03:08.224Z,20.76
2022-08-23T18:08:11.554Z,20.79
2022-08-23T18:13:15.049Z,20.78
2022-08-23T18:18:18.520Z,20.75
2022-08-23T18:23:22.083Z,20.74
2022-08-23T18:28:25.398Z,20.77
2022-08-23T18:33:31.954Z,20.78
2022-08-23T18:38:50.243Z,20.74
2022-08-23T18:43:53.554Z,20.74
2022-08-23T18:48:56.970Z,20.79
2022-08-23T18:54:00.895Z,20.81
2022-08-23T18:59:05.428Z,20.90
2022-08-23T19:04:10.381Z,20.89
2022-08-23T19:09:13.694Z,20.88
2022-08-23T19:14:17.208Z,20.90
2022-08-23T19:19:20.419Z,20.95
2022-08-23T19:24:24.443Z,20.94
2022-08-23T19:29:27.962Z,20.97
2022-08-23T19:34:32.294Z,20.98
2022-08-23T19:39:37.055Z,20.99
2022-08-23T19:44:40.453Z,21.00
2022-08-23T19:49:43.761Z,21.01
2022-08-23T19:54:47.183Z,21.02
2022-08-23T19:59:51.267Z,21.12
2022-08-23T20:04:54.619Z,21.10
2022-08-23T20:09:57.964Z,21.12
2022-08-23T20:15:02.341Z,21.11
2022-08-23T20:20:08.703Z,21.12
2022-08-23T20:25:12.017Z,21.10
2022-08-23T20:30:15.630Z,21.13
2022-08-23T20:35:18.788Z,21.15
2022-08-23T20:40:23.529Z,21.17
2022-08-23T20:45:27.048Z,21.21
2022-08-23T20:50:31.378Z,21.21
2022-08-23T20:55:34.708Z,21.23
2022-08-23T21:00:38.257Z,21.23
2022-08-23T21:05:41.517Z,21.21
2022-08-23T21:10:45.458Z,21.18
2022-08-23T21:15:49.401Z,21.12
2022-08-23T21:20:53.339Z,21.11
2022-08-23T21:25:58.453Z,21.10
2022-08-23T21:31:07.912Z,21.11
2022-08-23T21:36:13.469Z,21.08
2022-08-23T21:41:42.025Z,21.04
2022-08-23T21:46:46.063Z,21.02
2022-08-23T21:51:50.637Z,20.99
2022-08-23T21:56:53.948Z,20.94
2022-08-23T22:01:57.503Z,20.88
2022-08-23T22:07:01.023Z,20.86
2022-08-23T22:12:05.315Z,20.84
2022-08-23T22:17:10.059Z,20.82
2022-08-23T22:22:15.419Z,20.84
2022-08-23T22:27:19.550Z,20.87
2022-08-23T22:32:23.678Z,20.86
2022-08-23T22:37:27.296Z,20.83
2022-08-23T22:42:30.608Z,20.81
2022-08-23T22:47:34.022Z,20.80
2022-08-23T22:52:37.848Z,20.77
2022-08-23T22:57:41.258Z,20.73
2022-08-23T23:02:44.778Z,20.69
2022-08-23T23:08:06.619Z,20.69
2022-08-23T23:13:10.340Z,20.73
2022-08-23T23:18:13.648Z,20.68
2022-08-23T23:23:22.782Z,20.60
2022-08-23T23:28:26.828Z,20.58
2022-08-23T23:33:30.135Z,20.54
2022-08-23T23:38:33.449Z,20.52
2022-08-23T23:43:37.577Z,20.52
2022-08-23T23:48:41.704Z,20.55
2022-08-23T23:53:45.223Z,20.54
2022-08-23T23:58:51.298Z,20.49
